Time;durP1;ratioP1;P1;durP2;ratioP2;P2;SDS_P1;SDS_P2;PMS_P1;PMS_P2;Temp;Humidity;BMP_temperature;BMP_pressure;BME280_temperature;BME280_humidity;BME280_pressure;Samples;Min_cycle;Max_cycle;Signal;HPM_P1;HPM_P2
2023/03/16 00:00:26;;;;;;;11.18;6.13;;;;;;;9.87;50.37;98555.59;3165450;28;20188;-66
2023/03/16 00:01:58;;;;;;;13.05;6.47;;;;;;;10.01;50.32;98582.41;3165087;28;20797;-68
2023/03/16 00:03:30;;;;;;;9.73;5.30;;;;;;;10.17;50.33;98597.88;3165315;28;20063;-68
2023/03/16 00:05:01;;;;;;;13.73;5.90;;;;;;;10.17;50.46;98610.06;3165263;28;20059;-68
2023/03/16 00:06:33;;;;;;;12.02;5.45;;;;;;;10.11;50.58;98595.66;3165539;28;20056;-69
2023/03/16 00:08:05;;;;;;;11.13;5.65;;;;;;;10.15;50.84;98601.53;3164632;28;20468;-68
2023/03/16 00:09:39;;;;;;;10.43;6.00;;;;;;;10.15;51.14;98599.78;3165520;28;20070;-67
2023/03/16 00:11:12;;;;;;;8.88;5.13;;;;;;;10.14;50.90;98598.06;3163949;28;20054;-67
2023/03/16 00:12:44;;;;;;;11.90;5.30;;;;;;;9.96;51.29;98573.22;3165363;28;20106;-67
2023/03/16 00:14:16;;;;;;;11.32;5.72;;;;;;;10.15;51.55;98607.56;3158488;28;20062;-67
2023/03/16 00:15:51;;;;;;;15.15;4.90;;;;;;;10.15;51.35;98604.16;3161548;28;20158;-67
2023/03/16 00:17:23;;;;;;;10.07;5.28;;;;;;;10.13;52.02;98598.19;3161090;28;20048;-68
2023/03/16 00:18:57;;;;;;;10.70;4.57;;;;;;;10.14;52.18;98605.06;3165197;28;20051;-68
2023/03/16 00:20:28;;;;;;;9.10;5.32;;;;;;;10.13;52.30;98612.03;3165186;28;20048;-68
2023/03/16 00:22:00;;;;;;;8.95;4.82;;;;;;;10.13;52.18;98601.63;3165054;28;20058;-67
2023/03/16 00:23:34;;;;;;;7.38;4.65;;;;;;;10.14;52.61;98603.28;3165105;28;20062;-69
2023/03/16 00:25:07;;;;;;;8.60;4.50;;;;;;;10.15;52.65;98601.53;3164809;28;20055;-69
2023/03/16 00:26:39;;;;;;;7.68;4.63;;;;;;;9.74;52.75;98538.16;3165612;28;20637;-67
2023/03/16 00:28:12;;;;;;;8.90;5.00;;;;;;;10.13;52.66;98595.59;3165185;28;20081;-69
2023/03/16 00:29:46;;;;;;;;;;;;;;;10.13;52.64;98596.41;3159720;28;20077;-68
2023/03/16 00:31:18;;;;;;;10.00;4.32;;;;;;;10.06;53.13;98587.34;3165257;28;20652;-68
2023/03/16 00:32:52;;;;;;;10.07;4.20;;;;;;;10.14;53.26;98598.06;3155140;28;20052;-68
2023/03/16 00:34:24;;;;;;;8.25;4.45;;;;;;;10.14;53.67;98587.66;3165170;28;20055;-68
2023/03/16 00:36:02;;;;;;;9.45;4.47;;;;;;;10.16;53.51;98593.63;3166964;28;20489;-68
2023/03/16 00:37:33;;;;;;;12.07;4.63;;;;;;;10.16;53.72;98598.81;3164897;28;20047;-68
2023/03/16 00:39:06;;;;;;;8.23;4.30;;;;;;;9.71;54.16;98530.56;3164954;28;20060;-68
2023/03/16 00:40:37;;;;;;;7.80;4.25;;;;;;;10.11;54.19;98597.44;3165190;28;20113;-68
2023/03/16 00:42:10;;;;;;;11.13;4.40;;;;;;;10.16;54.30;98603.19;3165077;28;20051;-68
2023/03/16 00:43:44;;;;;;;8.68;4.30;;;;;;;10.13;54.30;98593.81;3164755;28;20512;-68
2023/03/16 00:45:17;;;;;;;6.47;4.10;;;;;;;10.14;54.49;98598.06;3163837;28;20527;-68
2023/03/16 00:46:48;;;;;;;;;;;;;;;10.12;54.32;98607.75;3165312;28;20047;-67
2023/03/16 00:48:23;;;;;;;9.75;4.55;;;;;;;10.13;54.74;98608.59;3164546;28;19976;-67
2023/03/16 00:49:56;;;;;;;9.65;4.18;;;;;;;10.13;54.94;98608.59;3164627;28;20105;-67
2023/03/16 00:51:28;;;;;;;9.75;3.92;;;;;;;10.14;55.14;98605.06;3164779;28;20452;-67
2023/03/16 00:53:00;;;;;;;10.63;4.20;;;;;;;10.15;55.13;98615.38;3164702;28;20043;-67
2023/03/16 00:54:32;;;;;;;10.63;4.70;;;;;;;10.10;55.21;98600.97;3164864;28;20047;-67
2023/03/16 00:56:05;;;;;;;7.37;4.30;;;;;;;9.97;55.28;98580.94;3164713;28;20047;-68
2023/03/16 00:57:37;;;;;;;7.25;4.30;;;;;;;10.16;55.40;98622.25;3164917;28;20043;-67
2023/03/16 00:59:11;;;;;;;8.70;4.30;;;;;;;10.16;55.10;98611.84;3163088;28;20074;-68
2023/03/16 01:00:46;;;;;;;6.35;4.00;;;;;;;10.16;55.57;98619.63;3156537;28;20823;-68
2023/03/16 01:02:22;;;;;;;10.00;4.20;;;;;;;10.18;55.24;98620.38;3164986;28;20051;-68
2023/03/16 01:03:54;;;;;;;8.77;4.50;;;;;;;10.12;55.48;98610.38;3164672;28;20322;-68
2023/03/16 01:05:26;;;;;;;6.93;4.63;;;;;;;10.21;55.27;98629.78;3164632;28;20520;-68
2023/03/16 01:06:58;;;;;;;7.07;4.35;;;;;;;9.73;55.49;98546.91;3164598;28;20130;-66
2023/03/16 01:08:31;;;;;;;8.57;4.53;;;;;;;10.18;55.86;98625.59;3164573;28;20051;-68
2023/03/16 01:10:04;;;;;;;7.63;4.03;;;;;;;10.17;55.86;98617.88;3164651;28;20048;-68
2023/03/16 01:11:36;;;;;;;8.48;4.90;;;;;;;10.20;56.07;98634.16;3152491;28;20401;-68
2023/03/16 01:13:07;;;;;;;9.60;4.13;;;;;;;10.20;56.32;98628.94;3164799;28;20047;-68
2023/03/16 01:14:40;;;;;;;8.85;4.38;;;;;;;9.63;56.15;98532.78;3160164;28;20133;-68
2023/03/16 01:16:14;;;;;;;10.23;4.93;;;;;;;10.15;56.57;98620.56;3163724;28;20123;-68
2023/03/16 01:17:46;;;;;;;7.40;4.25;;;;;;;10.13;56.76;98619.84;3164336;28;20055;-68
2023/03/16 01:19:16;;;;;;;11.27;4.90;;;;;;;10.18;56.46;98630.78;3163978;28;20051;-69
2023/03/16 01:20:49;;;;;;;7.78;4.68;;;;;;;10.19;56.45;98634.22;3164496;28;20508;-68
2023/03/16 01:22:20;;;;;;;6.60;4.35;;;;;;;10.20;56.62;98633.28;3164666;28;20083;-68
2023/03/16 01:23:53;;;;;;;7.38;4.43;;;;;;;10.20;56.81;98636.75;3164432;28;20547;-68
2023/03/16 01:25:24;;;;;;;10.15;5.03;;;;;;;10.04;56.81;98607.41;3164353;28;20074;-68
2023/03/16 01:26:56;;;;;;;7.75;4.35;;;;;;;10.18;57.01;98645.56;3164112;28;20081;-68
2023/03/16 01:28:33;;;;;;;9.27;4.90;;;;;;;10.17;57.42;98636.91;3158311;28;20087;-68
2023/03/16 01:30:05;;;;;;;11.38;5.25;;;;;;;10.13;57.63;98630.22;3163071;28;20052;-68
2023/03/16 01:31:38;;;;;;;8.88;4.40;;;;;;;10.14;57.68;98633.66;3164225;28;20063;-68
2023/03/16 01:33:10;;;;;;;8.32;4.88;;;;;;;10.10;57.81;98642.59;3164652;28;20525;-67
2023/03/16 01:34:41;;;;;;;8.07;4.47;;;;;;;10.10;57.94;98642.59;3164344;28;20052;-67
2023/03/16 01:36:14;;;;;;;8.15;4.38;;;;;;;10.09;58.05;98646.16;3164229;28;20055;-68
2023/03/16 01:37:46;;;;;;;6.32;3.97;;;;;;;10.06;58.20;98647.16;3164380;28;20043;-68
2023/03/16 01:39:17;;;;;;;6.65;3.92;;;;;;;10.01;57.84;98636.19;3164487;28;20112;-68
2023/03/16 01:40:50;;;;;;;5.97;3.42;;;;;;;10.06;58.35;98652.38;3163989;28;20146;-68
2023/03/16 01:42:22;;;;;;;5.72;3.70;;;;;;;9.97;58.30;98638.16;3164571;28;20058;-67
2023/03/16 01:43:57;;;;;;;7.57;3.90;;;;;;;9.99;58.65;98651.06;3163610;28;20051;-68
2023/03/16 01:46:13;;;;;;;5.80;3.58;;;;;;;9.55;58.40;98590.44;3153402;28;20317;-67
2023/03/16 01:47:46;;;;;;;6.85;2.72;;;;;;;9.69;57.93;98618.19;3136714;28;20043;-67
2023/03/16 01:49:22;;;;;;;3.70;2.10;;;;;;;9.78;57.91;98640.19;3164255;28;20044;-66
2023/03/16 01:50:55;;;;;;;2.92;1.83;;;;;;;9.77;57.70;98651.53;3164333;28;20051;-69
2023/03/16 01:52:32;;;;;;;3.60;1.77;;;;;;;9.69;57.67;98659.78;3164454;28;20154;-67
2023/03/16 01:54:07;;;;;;;3.75;2.08;;;;;;;9.63;57.51;98657.53;3164156;28;20139;-67
2023/03/16 01:55:41;;;;;;;3.17;1.70;;;;;;;9.51;57.22;98645.28;3164128;28;20058;-67
2023/03/16 01:57:16;;;;;;;8.82;1.95;;;;;;;9.55;57.34;98662.34;3164238;28;20297;-67
2023/03/16 01:58:49;;;;;;;3.22;1.90;;;;;;;9.52;57.18;98667.72;3163880;28;20047;-66
2023/03/16 02:00:30;;;;;;;6.35;1.50;;;;;;;9.43;57.40;98668.28;3161570;28;20058;-67
2023/03/16 02:02:02;;;;;;;3.42;1.52;;;;;;;9.33;57.51;98653.22;3153970;28;20086;-67
2023/03/16 02:03:35;;;;;;;2.45;1.63;;;;;;;9.31;57.42;98656.84;3164302;28;20578;-67
2023/03/16 02:05:13;;;;;;;2.30;1.33;;;;;;;9.31;57.26;98675.84;3164146;28;20065;-67
2023/03/16 02:06:46;;;;;;;2.65;1.70;;;;;;;8.39;57.48;98529.72;3164340;28;20112;-68
2023/03/16 02:08:18;;;;;;;2.47;1.70;;;;;;;9.23;57.42;98667.69;3164331;28;20503;-68
2023/03/16 02:09:53;;;;;;;2.35;1.65;;;;;;;9.19;57.83;98676.56;3164545;28;20052;-67
2023/03/16 02:11:24;;;;;;;3.65;1.60;;;;;;;9.19;57.49;98693.91;3163300;28;20066;-67
2023/03/16 02:12:57;;;;;;;3.08;1.80;;;;;;;9.18;57.63;98677.50;3164267;28;20054;-67
2023/03/16 02:14:28;;;;;;;2.13;1.70;;;;;;;9.19;57.49;98683.53;3161317;28;20048;-67
2023/03/16 02:16:00;;;;;;;3.83;1.70;;;;;;;9.18;57.78;98690.50;3162340;28;20055;-67
2023/03/16 02:17:34;;;;;;;6.75;2.38;;;;;;;9.18;57.53;98685.28;3163961;28;20144;-67
2023/03/16 02:19:13;;;;;;;2.75;1.77;;;;;;;9.14;57.71;98688.13;3164371;28;20167;-68
2023/03/16 02:20:51;;;;;;;2.67;1.77;;;;;;;9.14;57.83;98686.41;3164455;28;20130;-68
2023/03/16 02:22:24;;;;;;;6.65;1.90;;;;;;;9.14;57.64;98689.00;3164125;28;20819;-66
2023/03/16 02:23:55;;;;;;;2.72;1.88;;;;;;;9.03;57.96;98678.38;3163040;28;20074;-67
2023/03/16 02:25:34;;;;;;;3.70;2.20;;;;;;;9.13;58.31;98691.66;3164049;28;20056;-67
2023/03/16 02:27:10;;;;;;;3.08;2.00;;;;;;;9.11;58.31;98694.38;3164064;28;20497;-67
2023/03/16 02:28:49;;;;;;;3.28;2.17;;;;;;;9.01;58.41;98683.66;3160152;28;20133;-68
2023/03/16 02:30:23;;;;;;;3.03;2.08;;;;;;;9.08;58.46;98697.13;3163177;28;20443;-68
2023/03/16 02:31:56;;;;;;;4.28;1.95;;;;;;;9.08;58.55;98689.31;3166317;28;20055;-69
2023/03/16 02:33:30;;;;;;;3.95;1.80;;;;;;;9.08;58.91;98700.56;3166612;28;20065;-66
2023/03/16 02:35:02;;;;;;;2.78;1.55;;;;;;;9.01;58.85;98685.41;3166520;28;20601;-67
2023/03/16 02:36:36;;;;;;;2.60;1.83;;;;;;;9.02;58.98;98693.13;3166340;28;20047;-66
2023/03/16 02:38:08;;;;;;;2.75;1.55;;;;;;;8.97;59.09;98692.53;3166396;28;20591;-67
2023/03/16 02:39:42;;;;;;;2.25;1.60;;;;;;;9.03;59.21;98704.34;3166216;28;20052;-67
2023/03/16 02:41:17;;;;;;;2.58;1.23;;;;;;;8.93;59.04;98701.41;3165872;28;20043;-68
2023/03/16 02:42:54;;;;;;;3.05;1.40;;;;;;;8.89;59.08;98699.91;3166309;28;20232;-67
2023/03/16 02:44:32;;;;;;;2.65;1.70;;;;;;;8.93;59.00;98693.63;3164155;28;20043;-67
2023/03/16 02:46:05;;;;;;;4.90;1.75;;;;;;;8.99;58.91;98705.44;3157839;28;20521;-68
2023/03/16 02:47:41;;;;;;;3.22;2.00;;;;;;;8.93;58.54;98704.00;3166094;28;20085;-67
2023/03/16 02:49:18;;;;;;;5.68;1.83;;;;;;;8.91;58.44;98705.03;3166519;28;20047;-67
2023/03/16 02:50:52;;;;;;;1.77;1.25;;;;;;;8.95;58.81;98719.50;3166319;28;20096;-67
2023/03/16 02:52:24;;;;;;;4.07;1.58;;;;;;;8.92;58.59;98723.13;3166269;28;20052;-66
2023/03/16 02:53:56;;;;;;;2.25;1.50;;;;;;;8.87;58.51;98710.41;3166137;28;20105;-66
2023/03/16 02:55:28;;;;;;;1.67;1.20;;;;;;;8.91;58.36;98723.22;3166161;28;20134;-66
2023/03/16 02:57:00;;;;;;;1.80;1.33;;;;;;;8.84;58.26;98710.56;3165744;28;20063;-66
2023/03/16 02:58:33;;;;;;;2.88;1.42;;;;;;;8.90;58.45;98727.53;3166536;28;20254;-66
2023/03/16 03:00:11;;;;;;;2.47;1.60;;;;;;;8.88;58.15;98729.41;3158539;28;20051;-67
2023/03/16 03:01:43;;;;;;;2.30;1.50;;;;;;;8.86;58.31;98731.25;3165874;28;20178;-68
2023/03/16 03:03:15;;;;;;;3.13;1.67;;;;;;;8.75;58.43;98711.06;3166111;28;20675;-67
2023/03/16 03:04:47;;;;;;;2.58;1.40;;;;;;;8.85;58.02;98732.19;3166249;28;20142;-67
2023/03/16 03:06:19;;;;;;;3.83;1.42;;;;;;;8.84;57.76;98738.28;3166161;28;20092;-67
2023/03/16 03:07:51;;;;;;;3.45;1.60;;;;;;;8.84;58.11;98746.06;3165628;28;20047;-67
2023/03/16 03:09:23;;;;;;;2.45;1.55;;;;;;;8.77;57.89;98739.53;3165915;28;20065;-66
2023/03/16 03:10:55;;;;;;;3.60;1.75;;;;;;;8.76;57.88;98754.28;3158747;28;20084;-67
2023/03/16 03:12:26;;;;;;;2.92;1.70;;;;;;;8.74;57.80;98758.72;3164984;28;20066;-67
2023/03/16 03:13:58;;;;;;;7.18;1.50;;;;;;;8.72;57.70;98760.53;3165990;28;20048;-67
2023/03/16 03:15:29;;;;;;;2.65;1.77;;;;;;;8.71;57.80;98758.03;3160034;28;20051;-67
2023/03/16 03:17:03;;;;;;;2.28;1.58;;;;;;;8.70;57.67;98758.97;3165556;28;20052;-67
2023/03/16 03:18:34;;;;;;;2.83;1.77;;;;;;;8.66;57.58;98758.28;3165884;28;20500;-68
2023/03/16 03:20:12;;;;;;;3.85;1.77;;;;;;;8.67;57.34;98762.56;3165823;28;20138;-67
2023/03/16 03:21:44;;;;;;;3.03;1.48;;;;;;;8.63;57.29;98759.28;3165953;28;20452;-67
2023/03/16 03:23:16;;;;;;;2.78;1.67;;;;;;;8.60;57.49;98762.03;3165988;28;20054;-67
2023/03/16 03:24:48;;;;;;;3.55;1.95;;;;;;;8.56;57.53;98762.31;3165947;28;20143;-67
2023/03/16 03:26:21;;;;;;;3.33;2.17;;;;;;;8.51;57.48;98767.72;3165744;28;20043;-67
2023/03/16 03:27:54;;;;;;;4.63;2.50;;;;;;;8.41;57.48;98766.56;3166107;28;20056;-67
2023/03/16 03:29:33;;;;;;;2.28;1.42;;;;;;;8.45;57.44;98772.41;3164058;28;20055;-67
2023/03/16 03:31:05;;;;;;;2.70;1.52;;;;;;;8.43;57.58;98775.94;3165611;28;20047;-67
2023/03/16 03:32:38;;;;;;;3.42;1.85;;;;;;;8.43;57.66;98775.94;3165938;28;20443;-67
2023/03/16 03:34:10;;;;;;;3.72;1.63;;;;;;;8.40;57.73;98778.69;3153543;28;20135;-67
2023/03/16 03:35:43;;;;;;;2.50;1.60;;;;;;;8.36;57.70;98771.94;3165213;28;20526;-68
2023/03/16 03:37:15;;;;;;;2.17;1.70;;;;;;;8.35;57.77;98769.44;3165477;28;20203;-68
2023/03/16 03:38:49;;;;;;;2.92;1.67;;;;;;;8.37;57.69;98778.81;3165532;28;20040;-68
2023/03/16 03:40:21;;;;;;;3.20;1.60;;;;;;;8.32;57.62;98765.25;3165740;27;20166;-67
2023/03/16 03:41:53;;;;;;;5.53;2.25;;;;;;;8.33;57.76;98771.25;3165330;28;21677;-68
2023/03/16 03:43:25;;;;;;;2.60;1.60;;;;;;;8.24;57.75;98764.81;3165039;28;20052;-68
2023/03/16 03:44:56;;;;;;;6.88;1.88;;;;;;;8.27;57.74;98777.59;3159035;28;20883;-68
2023/03/16 03:46:28;;;;;;;2.22;1.35;;;;;;;8.27;58.05;98779.38;3160437;28;20052;-68
2023/03/16 03:48:01;;;;;;;3.08;1.67;;;;;;;8.15;57.80;98773.91;3165739;28;20401;-67
2023/03/16 03:49:33;;;;;;;;;;;;;;;8.16;58.04;98782.50;3165954;28;20059;-68
2023/03/16 03:51:05;;;;;;;4.57;1.40;;;;;;;8.17;58.13;98789.38;3165603;28;20056;-68
2023/03/16 03:52:37;;;;;;;2.10;1.27;;;;;;;8.11;58.14;98776.75;3165306;28;20051;-68
2023/03/16 03:54:09;;;;;;;3.38;1.38;;;;;;;8.15;58.45;98786.84;3165803;28;20048;-68
2023/03/16 03:55:41;;;;;;;1.88;1.13;;;;;;;8.13;58.44;98806.00;3165236;28;20130;-68
2023/03/16 03:57:13;;;;;;;5.32;1.70;;;;;;;8.13;58.12;98793.91;3165748;28;20048;-68
2023/03/16 03:58:45;;;;;;;1.83;1.30;;;;;;;8.14;58.42;98797.31;3165470;28;20553;-68
2023/03/16 04:00:19;;;;;;;4.55;1.27;;;;;;;8.11;58.35;98807.84;3156838;28;20686;-68
2023/03/16 04:01:52;;;;;;;8.93;1.58;;;;;;;8.06;58.31;98796.88;3165192;28;20598;-68
2023/03/16 04:03:25;;;;;;;2.50;1.20;;;;;;;8.05;58.37;98801.22;3165792;28;20058;-68
2023/03/16 04:04:57;;;;;;;3.33;1.33;;;;;;;7.98;58.52;98790.31;3165541;28;20588;-68
2023/03/16 04:06:30;;;;;;;2.63;1.40;;;;;;;8.01;58.49;98806.63;3165442;28;20429;-68
2023/03/16 04:08:02;;;;;;;1.53;0.93;;;;;;;7.94;58.56;98804.34;3165307;28;20060;-68
2023/03/16 04:09:34;;;;;;;2.28;1.30;;;;;;;7.92;58.73;98795.81;3165296;28;20047;-68
2023/03/16 04:11:06;;;;;;;2.03;1.50;;;;;;;7.91;58.55;98799.31;3156162;28;20681;-68
2023/03/16 04:12:38;;;;;;;3.90;1.40;;;;;;;7.83;58.82;98796.25;3161832;28;20055;-68
2023/03/16 04:14:10;;;;;;;4.80;1.33;;;;;;;7.87;58.51;98797.81;3162119;27;20444;-68
2023/03/16 04:15:45;;;;;;;2.38;1.40;;;;;;;7.90;58.60;98807.19;3160856;28;20058;-68
2023/03/16 04:17:17;;;;;;;2.47;1.48;;;;;;;7.87;58.65;98810.78;3164915;28;20677;-68
2023/03/16 04:18:50;;;;;;;6.20;1.58;;;;;;;7.86;58.68;98821.19;3165057;28;20059;-67
2023/03/16 04:20:22;;;;;;;5.53;1.38;;;;;;;7.74;58.77;98801.91;3165465;28;20039;-67
2023/03/16 04:21:54;;;;;;;2.58;1.52;;;;;;;7.80;58.66;98816.31;3165220;28;20055;-67
2023/03/16 04:23:26;;;;;;;4.45;1.52;;;;;;;7.74;58.62;98825.22;3164631;28;20056;-66
2023/03/16 04:24:58;;;;;;;4.90;1.48;;;;;;;7.72;58.60;98824.50;3164807;28;20138;-67
2023/03/16 04:26:29;;;;;;;2.40;1.30;;;;;;;7.70;58.69;98837.50;3164803;28;20097;-66
2023/03/16 04:28:01;;;;;;;2.67;1.20;;;;;;;7.69;58.75;98837.56;3165003;28;20528;-67
2023/03/16 04:29:33;;;;;;;2.88;1.50;;;;;;;7.58;58.54;98826.91;3163370;28;20052;-67
2023/03/16 04:31:07;;;;;;;2.28;1.25;;;;;;;7.65;58.84;98847.25;3164941;28;20101;-68
2023/03/16 04:32:40;;;;;;;1.83;1.30;;;;;;;7.64;58.68;98843.00;3164885;28;20052;-68
2023/03/16 04:34:14;;;;;;;2.90;1.50;;;;;;;7.58;58.83;98834.69;3165352;28;20576;-68
2023/03/16 04:35:46;;;;;;;5.38;1.60;;;;;;;7.36;58.75;98801.19;3152538;28;20453;-67
2023/03/16 04:37:18;;;;;;;2.13;1.50;;;;;;;7.51;58.70;98832.38;3164994;28;20127;-67
2023/03/16 04:38:51;;;;;;;2.63;1.33;;;;;;;6.64;58.77;98690.72;3164778;28;20055;-67
2023/03/16 04:40:22;;;;;;;2.38;1.48;;;;;;;7.40;58.76;98819.09;3165194;28;20075;-67
2023/03/16 04:41:54;;;;;;;2.72;1.40;;;;;;;7.52;58.73;98833.22;3164833;28;20066;-67
2023/03/16 04:43:25;;;;;;;1.95;1.17;;;;;;;7.57;58.77;98851.97;3164909;28;20467;-67
2023/03/16 04:44:57;;;;;;;4.00;1.23;;;;;;;7.57;58.86;98853.72;3158317;28;20132;-67
2023/03/16 04:46:29;;;;;;;2.45;1.23;;;;;;;7.55;58.86;98848.63;3159842;28;20052;-67
2023/03/16 04:48:00;;;;;;;4.78;1.58;;;;;;;7.53;58.78;98851.28;3164882;28;20127;-67
2023/03/16 04:49:33;;;;;;;5.18;2.65;;;;;;;7.52;58.67;98851.34;3165109;28;20122;-67
2023/03/16 04:51:04;;;;;;;;;;;;;;;7.45;58.54;98860.31;3165305;28;20070;-67
2023/03/16 04:52:36;;;;;;;3.83;2.30;;;;;;;7.45;58.46;98862.91;3164558;28;19924;-66
2023/03/16 04:54:08;;;;;;;3.25;2.08;;;;;;;7.47;58.59;98867.09;3164542;28;20084;-67
2023/03/16 04:55:40;;;;;;;4.03;1.85;;;;;;;7.36;58.41;98842.63;3164608;28;20052;-66
2023/03/16 04:57:12;;;;;;;2.22;1.30;;;;;;;7.50;58.34;98866.13;3164889;28;20051;-66
2023/03/16 04:58:43;;;;;;;2.80;1.20;;;;;;;7.50;58.38;98860.94;3164720;28;20133;-66
2023/03/16 05:00:18;;;;;;;3.22;1.50;;;;;;;7.28;58.15;98835.22;3156247;28;20138;-66
2023/03/16 05:01:50;;;;;;;2.42;1.45;;;;;;;7.50;58.21;98877.31;3164402;28;20089;-67
2023/03/16 05:03:22;;;;;;;3.08;2.15;;;;;;;7.53;58.28;98874.59;3164830;28;20052;-67
2023/03/16 05:04:56;;;;;;;1.90;1.10;;;;;;;7.56;57.97;98880.53;3164617;28;20051;-67
2023/03/16 05:06:28;;;;;;;2.67;1.30;;;;;;;7.48;57.98;98874.00;3164764;28;20296;-67
2023/03/16 05:08:00;;;;;;;1.42;0.82;;;;;;;7.49;58.00;98880.84;3161850;28;20089;-67
2023/03/16 05:09:32;;;;;;;2.85;1.20;;;;;;;7.55;57.92;98895.25;3162578;28;20523;-67
2023/03/16 05:11:04;;;;;;;3.05;1.17;;;;;;;7.55;57.84;98889.25;3155826;28;20063;-67
2023/03/16 05:12:36;;;;;;;1.98;1.20;;;;;;;7.56;57.87;98898.69;3161171;28;20104;-67
2023/03/16 05:14:08;;;;;;;4.80;1.23;;;;;;;7.50;57.77;98887.69;3164564;28;20065;-66
2023/03/16 05:15:40;;;;;;;4.35;1.40;;;;;;;7.51;57.76;98896.28;3159468;28;20051;-66
2023/03/16 05:17:13;;;;;;;2.45;1.15;;;;;;;7.55;57.68;98900.44;3164592;27;20443;-67
2023/03/16 05:18:45;;;;;;;2.28;1.40;;;;;;;7.55;57.46;98899.59;3164558;28;20089;-66
2023/03/16 05:20:20;;;;;;;2.13;1.15;;;;;;;7.55;57.57;98902.19;3164525;28;20147;-69
2023/03/16 05:21:52;;;;;;;3.33;1.27;;;;;;;7.46;57.48;98901.72;3164088;28;20135;-67
2023/03/16 05:23:24;;;;;;;5.80;1.58;;;;;;;7.47;57.45;98903.38;3164013;28;20051;-67
2023/03/16 05:24:56;;;;;;;4.03;1.42;;;;;;;7.54;57.29;98911.69;3164249;28;20822;-66
2023/03/16 05:26:28;;;;;;;3.90;1.35;;;;;;;7.52;57.37;98919.56;3164285;28;20116;-69
2023/03/16 05:28:00;;;;;;;1.77;0.98;;;;;;;7.48;57.32;98919.75;3164040;28;20055;-67
2023/03/16 05:29:33;;;;;;;4.20;0.88;;;;;;;7.50;57.29;98923.97;3162529;28;20040;-68
2023/03/16 05:31:05;;;;;;;4.80;1.20;;;;;;;7.35;57.30;98900.53;3164179;28;20086;-66
2023/03/16 05:32:37;;;;;;;3.17;0.77;;;;;;;7.45;57.32;98925.06;3164702;28;20055;-67
2023/03/16 05:34:09;;;;;;;3.85;0.90;;;;;;;7.50;57.42;98928.31;3164394;28;20047;-65
2023/03/16 05:35:41;;;;;;;3.33;1.38;;;;;;;7.45;57.39;98928.53;3164236;28;20061;-66
2023/03/16 05:37:13;;;;;;;2.72;1.20;;;;;;;7.30;57.37;98898.13;3164210;28;20051;-67
2023/03/16 05:38:46;;;;;;;2.67;1.25;;;;;;;7.55;57.27;98941.06;3163954;28;20056;-67
2023/03/16 05:40:21;;;;;;;1.98;1.17;;;;;;;7.54;57.27;98932.41;3164166;28;20575;-66
2023/03/16 05:41:54;;;;;;;1.92;1.05;;;;;;;7.53;57.22;98941.13;3164214;28;20074;-67
2023/03/16 05:43:27;;;;;;;3.88;1.35;;;;;;;7.54;57.14;98942.78;3164399;28;20157;-71
2023/03/16 05:45:00;;;;;;;4.22;0.88;;;;;;;7.49;57.14;98922.28;3161592;28;20277;-69
2023/03/16 05:46:32;;;;;;;2.20;0.90;;;;;;;7.57;57.06;98946.97;3164386;28;20146;-69
2023/03/16 05:48:05;;;;;;;2.65;0.90;;;;;;;7.58;56.96;98952.13;3164097;28;20525;-65
2023/03/16 05:49:37;;;;;;;0.93;0.63;;;;;;;7.56;56.77;98940.97;3164182;28;20086;-67
2023/03/16 05:51:11;;;;;;;1.65;0.80;;;;;;;7.58;56.74;98944.34;3164185;28;20141;-69
2023/03/16 05:52:45;;;;;;;2.00;0.90;;;;;;;7.52;56.69;98940.28;3163890;28;20047;-69
2023/03/16 05:54:17;;;;;;;2.55;0.80;;;;;;;7.45;56.73;98938.91;3163762;28;20044;-71
2023/03/16 05:55:52;;;;;;;5.25;1.08;;;;;;;7.51;56.90;98954.16;3164063;28;20115;-70
2023/03/16 05:57:24;;;;;;;1.30;0.82;;;;;;;7.48;56.45;98949.13;3164385;28;20048;-67
2023/03/16 05:58:56;;;;;;;5.75;0.77;;;;;;;7.50;56.37;98960.22;3165054;28;20051;-65
2023/03/16 06:00:28;;;;;;;1.48;0.60;;;;;;;6.98;56.43;98879.75;3161139;28;20051;-66
2023/03/16 06:02:01;;;;;;;2.40;0.77;;;;;;;7.50;56.23;98964.56;3163702;28;20043;-68
2023/03/16 06:03:32;;;;;;;2.88;0.70;;;;;;;7.47;56.13;98962.97;3164145;28;20124;-64
2023/03/16 06:05:06;;;;;;;1.38;0.75;;;;;;;7.46;55.99;98961.28;3157670;28;20051;-66
2023/03/16 06:06:39;;;;;;;14.45;6.53;;;;;;;7.48;56.06;98963.78;3165889;28;20057;-65
2023/03/16 06:08:11;;;;;;;;;;;;;;;7.46;55.82;98969.06;3167425;28;20075;-65
2023/03/16 06:09:43;;;;;;;3.00;1.30;;;;;;;7.49;55.69;98974.09;3166874;28;19966;-66
2023/03/16 06:11:15;;;;;;;4.03;1.50;;;;;;;7.52;55.70;98973.97;3156306;28;20531;-66
2023/03/16 06:12:46;;;;;;;1.15;0.80;;;;;;;7.50;55.38;98962.81;3163741;28;20134;-63
2023/03/16 06:14:18;;;;;;;5.40;0.63;;;;;;;7.03;55.17;98898.47;3165606;28;20051;-64
2023/03/16 06:15:50;;;;;;;3.35;0.50;;;;;;;7.50;55.02;98980.13;3163173;28;20048;-68
2023/03/16 06:17:22;;;;;;;2.75;0.60;;;;;;;7.47;55.01;98969.91;3166469;28;20113;-67
2023/03/16 06:18:55;;;;;;;3.55;0.85;;;;;;;7.45;54.96;98977.75;3166402;28;20495;-66
2023/03/16 06:20:27;;;;;;;12.18;5.60;;;;;;;7.47;54.93;98977.66;3166527;28;20788;-71
2023/03/16 06:22:00;;;;;;;8.43;4.00;;;;;;;7.50;54.85;98980.13;3166525;28;20473;-67
2023/03/16 06:23:33;;;;;;;9.00;2.92;;;;;;;7.51;54.83;98976.59;3166434;28;20218;-69
2023/03/16 06:25:06;;;;;;;15.37;3.57;;;;;;;7.52;54.62;98983.50;3165784;28;20134;-68
2023/03/16 06:26:38;;;;;;;9.60;2.50;;;;;;;7.52;54.74;98986.91;3159789;28;20347;-69
2023/03/16 06:28:10;;;;;;;4.13;1.17;;;;;;;7.50;54.47;98983.53;3166517;28;20048;-69
2023/03/16 06:29:42;;;;;;;5.95;1.02;;;;;;;7.48;54.75;98987.97;3166023;28;20587;-69
2023/03/16 06:31:14;;;;;;;2.67;0.98;;;;;;;7.47;54.66;98991.44;3166776;28;20047;-69
2023/03/16 06:32:46;;;;;;;2.83;1.15;;;;;;;7.47;54.78;98994.03;3166823;28;20063;-71
2023/03/16 06:34:18;;;;;;;1.17;0.60;;;;;;;6.52;54.47;98845.56;3165659;28;20048;-70
2023/03/16 06:35:50;;;;;;;1.58;0.50;;;;;;;7.43;54.63;99002.88;3166467;28;20130;-71
2023/03/16 06:37:23;;;;;;;2.63;0.95;;;;;;;7.39;54.61;98992.72;3166426;28;20594;-70
2023/03/16 06:38:55;;;;;;;2.58;0.75;;;;;;;7.45;54.53;99014.03;3166157;28;20104;-72
2023/03/16 06:40:27;;;;;;;3.75;0.93;;;;;;;7.47;54.47;99008.75;3166569;28;20048;-71
2023/03/16 06:42:00;;;;;;;3.25;0.80;;;;;;;6.43;54.29;98842.53;3165910;28;20058;-73
2023/03/16 06:43:32;;;;;;;1.60;0.80;;;;;;;7.49;54.23;99014.72;3166583;28;20050;-68
2023/03/16 06:45:04;;;;;;;2.00;0.85;;;;;;;7.51;54.33;99023.25;3155110;28;20059;-67
2023/03/16 06:46:36;;;;;;;2.08;0.70;;;;;;;7.51;54.40;99026.69;3162075;28;20051;-69
2023/03/16 06:48:08;;;;;;;2.67;0.90;;;;;;;7.44;54.20;99016.66;3166307;28;20055;-71
2023/03/16 06:49:40;;;;;;;1.83;0.90;;;;;;;7.50;54.24;99026.75;3166377;28;20069;-72
2023/03/16 06:51:12;;;;;;;1.70;0.77;;;;;;;7.48;54.00;99026.84;3166052;28;20055;-71
2023/03/16 06:52:45;;;;;;;1.70;0.80;;;;;;;7.49;54.24;99033.69;3166292;28;20052;-72
2023/03/16 06:54:17;;;;;;;4.53;0.80;;;;;;;7.46;54.08;99031.22;3166176;28;20112;-72
2023/03/16 06:55:50;;;;;;;1.98;0.80;;;;;;;7.41;54.03;99027.16;3166314;28;20165;-71
2023/03/16 06:57:21;;;;;;;5.22;1.25;;;;;;;7.47;53.84;99039.84;3166064;28;20461;-70
2023/03/16 06:58:53;;;;;;;2.40;0.95;;;;;;;7.49;53.83;99046.63;3166209;28;20047;-68
2023/03/16 07:00:26;;;;;;;1.52;0.70;;;;;;;7.48;53.93;99044.09;3157059;28;20074;-72
2023/03/16 07:01:58;;;;;;;4.65;0.98;;;;;;;7.50;53.86;99044.88;3154627;28;20063;-66
2023/03/16 07:03:30;;;;;;;3.80;1.40;;;;;;;7.52;53.65;99049.09;3166139;28;20067;-69
2023/03/16 07:05:02;;;;;;;2.40;1.23;;;;;;;7.53;53.70;99050.75;3165509;28;20047;-70
2023/03/16 07:06:34;;;;;;;5.93;0.80;;;;;;;7.52;53.65;99053.44;3166245;28;20059;-68
2023/03/16 07:08:08;;;;;;;3.47;1.08;;;;;;;7.52;53.56;99056.88;3165852;28;20086;-68
2023/03/16 07:09:40;;;;;;;5.45;0.95;;;;;;;7.32;53.67;99017.22;3165900;28;20489;-66
2023/03/16 07:11:13;;;;;;;2.08;0.77;;;;;;;7.47;53.66;99055.38;3165375;28;20048;-68
2023/03/16 07:12:46;;;;;;;4.65;0.70;;;;;;;7.46;53.78;99054.53;3165934;28;20051;-66
2023/03/16 07:14:18;;;;;;;3.23;0.90;;;;;;;7.29;53.67;99031.97;3165064;28;20070;-74
2023/03/16 07:15:51;;;;;;;2.10;0.80;;;;;;;7.44;53.79;99056.34;3163812;28;20051;-71
2023/03/16 07:17:23;;;;;;;5.55;1.33;;;;;;;7.39;53.66;99060.06;3165776;28;20144;-72
2023/03/16 07:18:55;;;;;;;1.98;0.88;;;;;;;6.92;53.58;98982.69;3165956;28;20164;-76
2023/03/16 07:20:30;;;;;;;3.92;0.98;;;;;;;7.44;53.45;99066.72;3165688;28;20120;-70
2023/03/16 07:22:02;;;;;;;3.28;0.70;;;;;;;7.42;53.50;99068.53;3165022;28;20059;-72